createdAt,value
2018-08-06T00:02:00.318Z,53.40
2018-08-06T00:06:08.002Z,53.20
2018-08-06T00:08:14.225Z,53.30
2018-08-06T00:10:20.523Z,53.30
2018-08-06T00:12:26.125Z,53.30
2018-08-06T00:14:31.055Z,53.20
2018-08-06T00:16:35.002Z,53.20
2018-08-06T00:18:39.198Z,53.30
2018-08-06T00:20:43.493Z,53.30
2018-08-06T00:22:47.489Z,53.40
2018-08-06T00:24:51.465Z,53.40
2018-08-06T00:26:58.528Z,53.50
2018-08-06T00:29:02.973Z,53.50
2018-08-06T00:31:07.520Z,53.50
2018-08-06T00:33:12.243Z,53.70
2018-08-06T00:35:16.984Z,54.50
2018-08-06T00:37:20.950Z,53.80
2018-08-06T00:39:25.627Z,53.90
2018-08-06T00:41:29.588Z,53.80
2018-08-06T00:43:33.619Z,54.00
2018-08-06T00:45:37.865Z,53.70
2018-08-06T00:47:41.818Z,53.80
2018-08-06T00:49:45.689Z,53.90
2018-08-06T00:51:49.890Z,54.00
2018-08-06T00:55:57.386Z,54.10
2018-08-06T00:58:02.728Z,54.00
2018-08-06T01:00:11.052Z,53.90
2018-08-06T01:02:15.292Z,53.90
2018-08-06T01:04:19.618Z,54.10
2018-08-06T01:06:23.586Z,54.20
2018-08-06T01:08:27.652Z,54.20
2018-08-06T01:10:31.731Z,54.30
2018-08-06T01:12:35.836Z,54.50
2018-08-06T01:14:39.811Z,54.50
2018-08-06T01:16:43.834Z,54.50
2018-08-06T01:18:48.045Z,54.40
2018-08-06T01:20:51.979Z,54.20
2018-08-06T01:22:55.860Z,54.50
2018-08-06T01:25:01.166Z,54.70
2018-08-06T01:27:05.233Z,55.70
2018-08-06T01:29:09.220Z,55.10
2018-08-06T01:31:13.128Z,55.00
2018-08-06T01:33:17.589Z,55.10
2018-08-06T01:35:21.416Z,55.10
2018-08-06T01:37:25.325Z,55.30
2018-08-06T01:39:30.202Z,55.10
2018-08-06T01:41:34.347Z,55.10
2018-08-06T01:43:38.662Z,55.20
2018-08-06T01:45:44.028Z,55.30
2018-08-06T01:47:47.904Z,55.30
2018-08-06T01:49:51.788Z,55.50
2018-08-06T01:51:55.774Z,55.50
2018-08-06T01:54:00.041Z,55.50
2018-08-06T01:56:03.874Z,55.50
2018-08-06T01:58:08.055Z,56.40
2018-08-06T02:00:16.409Z,55.70
2018-08-06T02:02:20.290Z,55.70
2018-08-06T02:04:24.333Z,55.60
2018-08-06T02:06:29.422Z,55.80
2018-08-06T02:08:34.042Z,55.80
2018-08-06T02:10:38.310Z,56.00
2018-08-06T02:12:43.063Z,55.80
2018-08-06T02:14:46.856Z,55.70
2018-08-06T02:16:50.711Z,55.60
2018-08-06T02:18:54.685Z,55.70
2018-08-06T02:20:59.028Z,56.10
2018-08-06T02:25:08.517Z,56.50
2018-08-06T02:27:12.471Z,55.80
2018-08-06T02:29:16.589Z,56.00
2018-08-06T02:31:20.599Z,56.30
2018-08-06T02:33:25.752Z,56.10
2018-08-06T02:35:30.132Z,56.40
2018-08-06T02:37:35.184Z,56.40
2018-08-06T02:39:39.253Z,56.70
2018-08-06T02:41:43.144Z,56.90
2018-08-06T02:43:47.049Z,57.10
2018-08-06T02:45:51.227Z,57.10
2018-08-06T02:47:55.153Z,57.10
2018-08-06T02:49:59.048Z,57.10
2018-08-06T02:52:02.868Z,57.50
2018-08-06T02:54:06.849Z,58.00
2018-08-06T02:56:10.839Z,58.20
2018-08-06T02:58:14.706Z,58.60
2018-08-06T03:00:18.993Z,59.00
2018-08-06T03:02:23.656Z,59.10
2018-08-06T03:04:27.632Z,59.10
2018-08-06T03:06:32.968Z,59.00
2018-08-06T03:08:36.831Z,59.20
2018-08-06T03:10:40.749Z,59.20
2018-08-06T03:12:46.187Z,59.30
2018-08-06T03:14:51.500Z,59.20
2018-08-06T03:16:55.363Z,58.80
2018-08-06T03:18:59.278Z,58.90
2018-08-06T03:21:03.588Z,59.40
2018-08-06T03:23:07.487Z,59.80
2018-08-06T03:25:13.325Z,59.90
2018-08-06T03:27:17.115Z,60.00
2018-08-06T03:29:21.022Z,59.80
2018-08-06T03:31:24.933Z,59.80
2018-08-06T03:33:32.440Z,60.00
2018-08-06T03:35:36.336Z,60.30
2018-08-06T03:37:40.336Z,60.30
2018-08-06T03:39:45.605Z,60.40
2018-08-06T03:41:49.645Z,60.60
2018-08-06T03:43:53.520Z,60.80
2018-08-06T03:46:01.085Z,61.00
2018-08-06T03:48:04.989Z,60.80
2018-08-06T03:50:10.002Z,61.00
2018-08-06T03:52:14.100Z,61.00
2018-08-06T03:54:17.987Z,61.20
2018-08-06T03:56:22.057Z,61.20
2018-08-06T03:58:26.575Z,61.10
2018-08-06T04:00:33.129Z,61.10
2018-08-06T04:02:37.983Z,61.10
2018-08-06T04:04:43.174Z,61.40
2018-08-06T04:06:47.509Z,61.50
2018-08-06T04:08:51.406Z,61.50
2018-08-06T04:10:55.341Z,61.40
2018-08-06T04:12:59.798Z,61.20
2018-08-06T04:15:04.869Z,61.50
2018-08-06T04:17:08.778Z,61.70
2018-08-06T04:19:14.256Z,61.90
2018-08-06T04:21:18.565Z,62.10
2018-08-06T04:23:22.561Z,61.90
2018-08-06T04:25:26.717Z,61.80
2018-08-06T04:27:30.729Z,61.90
2018-08-06T04:29:34.671Z,61.90
2018-08-06T04:31:40.074Z,61.80
2018-08-06T04:33:44.065Z,61.50
2018-08-06T04:35:47.919Z,61.30
2018-08-06T04:39:55.589Z,61.40
2018-08-06T04:41:59.734Z,61.30
2018-08-06T04:44:08.441Z,60.90
2018-08-06T04:46:12.595Z,60.50
2018-08-06T04:48:17.401Z,60.00
2018-08-06T04:50:33.210Z,59.90
2018-08-06T04:52:37.726Z,59.70
2018-08-06T04:54:41.637Z,59.60
2018-08-06T04:56:47.019Z,59.20
2018-08-06T04:58:53.700Z,59.10
2018-08-06T05:01:08.283Z,58.90
2018-08-06T05:03:17.358Z,58.60
2018-08-06T05:05:27.943Z,58.40
2018-08-06T05:07:33.511Z,58.10
2018-08-06T05:09:41.755Z,57.60
2018-08-06T05:11:46.326Z,57.40
2018-08-06T05:13:51.528Z,56.90
2018-08-06T05:15:55.805Z,56.10
2018-08-06T05:18:01.009Z,55.70
2018-08-06T05:20:05.135Z,55.40
2018-08-06T05:22:09.317Z,54.90
2018-08-06T05:24:13.640Z,54.50
2018-08-06T05:26:18.394Z,54.60
2018-08-06T05:28:22.340Z,54.40
2018-08-06T05:30:26.273Z,54.80
2018-08-06T05:32:30.280Z,54.80
2018-08-06T05:34:35.816Z,54.40
2018-08-06T05:36:41.135Z,53.90
2018-08-06T05:38:45.202Z,52.80
2018-08-06T05:40:50.338Z,52.60
2018-08-06T05:42:54.297Z,52.70
2018-08-06T05:44:58.294Z,52.50
2018-08-06T05:47:08.407Z,52.00
2018-08-06T05:49:15.693Z,52.00
2018-08-06T05:51:28.176Z,51.60
2018-08-06T05:53:32.230Z,51.70
2018-08-06T05:55:36.077Z,51.30
2018-08-06T05:57:41.952Z,51.70
2018-08-06T05:59:48.637Z,52.00
2018-08-06T06:01:54.407Z,51.30
2018-08-06T06:03:58.766Z,51.30
2018-08-06T06:06:02.893Z,50.50
2018-08-06T06:08:08.979Z,51.10
2018-08-06T06:10:14.668Z,51.00
2018-08-06T06:12:19.655Z,50.70
2018-08-06T06:14:24.981Z,50.90
2018-08-06T06:16:29.019Z,50.30
2018-08-06T06:18:34.112Z,50.70
2018-08-06T06:20:40.822Z,50.50
2018-08-06T06:22:44.847Z,51.00
2018-08-06T06:24:58.390Z,50.50
2018-08-06T06:27:03.136Z,50.50
2018-08-06T06:29:07.682Z,50.20
2018-08-06T06:31:13.164Z,49.80
2018-08-06T06:33:21.723Z,49.30
2018-08-06T06:37:30.764Z,49.50
2018-08-06T06:39:35.355Z,49.30
2018-08-06T06:41:40.615Z,48.80
2018-08-06T06:43:44.484Z,48.70
2018-08-06T06:45:48.673Z,48.70
2018-08-06T06:47:52.772Z,49.20
2018-08-06T06:49:57.476Z,49.30
2018-08-06T06:52:10.310Z,48.70
2018-08-06T06:54:14.722Z,48.00
2018-08-06T06:56:20.763Z,47.50
2018-08-06T06:58:24.817Z,47.00
2018-08-06T07:00:29.612Z,47.30
2018-08-06T07:02:35.320Z,47.10
2018-08-06T07:04:39.932Z,46.90
2018-08-06T07:06:45.847Z,46.60
2018-08-06T07:08:50.637Z,46.90
2018-08-06T07:10:58.303Z,46.60
2018-08-06T07:13:02.325Z,46.00
2018-08-06T07:15:12.766Z,45.70
2018-08-06T07:17:18.690Z,45.20
2018-08-06T07:19:24.458Z,45.60
2018-08-06T07:21:29.793Z,45.50
2018-08-06T07:23:35.136Z,45.50
2018-08-06T07:25:42.335Z,45.40
2018-08-06T07:27:47.374Z,45.60
2018-08-06T07:29:51.347Z,46.50
2018-08-06T07:31:58.456Z,46.60
2018-08-06T07:34:05.322Z,47.00
2018-08-06T07:36:12.280Z,47.20
2018-08-06T07:38:18.252Z,46.40
2018-08-06T07:40:26.735Z,45.30
2018-08-06T07:42:41.604Z,44.70
2018-08-06T07:44:46.968Z,44.40
2018-08-06T07:46:51.654Z,44.60
2018-08-06T07:48:56.263Z,44.30
2018-08-06T07:51:00.182Z,44.30
2018-08-06T07:53:05.860Z,44.20
2018-08-06T07:55:09.932Z,44.30
2018-08-06T07:57:13.822Z,43.80
2018-08-06T07:59:17.988Z,43.00
2018-08-06T08:01:25.330Z,42.50
2018-08-06T08:03:29.234Z,41.90
2018-08-06T08:05:54.519Z,42.10
2018-08-06T08:08:12.509Z,42.10
2018-08-06T08:10:19.768Z,41.80
2018-08-06T08:12:25.963Z,41.90
2018-08-06T08:14:29.904Z,42.60
2018-08-06T08:16:35.149Z,42.70
2018-08-06T08:20:43.653Z,42.60
2018-08-06T08:22:47.689Z,42.80
2018-08-06T08:26:57.010Z,42.90
2018-08-06T08:29:04.110Z,42.70
2018-08-06T08:31:08.662Z,41.60
2018-08-06T08:33:14.430Z,41.30
2018-08-06T08:35:20.507Z,41.30
2018-08-06T08:37:27.337Z,41.70
2018-08-06T08:39:31.429Z,42.10
2018-08-06T08:41:36.380Z,42.00
2018-08-06T08:43:42.124Z,41.80
2018-08-06T08:45:47.644Z,42.00
2018-08-06T08:47:54.816Z,41.90
2018-08-06T08:49:59.966Z,40.90
2018-08-06T08:54:09.278Z,40.70
2018-08-06T08:56:15.275Z,40.80
2018-08-06T08:58:20.860Z,40.00
2018-08-06T09:00:27.042Z,40.00
2018-08-06T09:02:37.472Z,40.20
2018-08-06T09:04:44.389Z,39.90
2018-08-06T09:06:48.373Z,39.30
2018-08-06T09:08:54.226Z,39.10
2018-08-06T09:11:01.422Z,39.00
2018-08-06T09:13:15.177Z,38.90
2018-08-06T09:15:32.148Z,38.90
2018-08-06T09:17:41.979Z,39.10
2018-08-06T09:19:46.244Z,39.00
2018-08-06T09:21:51.996Z,39.20
2018-08-06T09:23:55.950Z,38.90
2018-08-06T09:26:00.891Z,39.10
2018-08-06T09:28:08.648Z,38.70
2018-08-06T09:30:16.284Z,38.40
2018-08-06T09:32:20.442Z,37.80
2018-08-06T09:34:24.412Z,37.40
2018-08-06T09:36:28.307Z,36.60
2018-08-06T09:38:36.712Z,35.70
2018-08-06T09:40:42.404Z,34.90
2018-08-06T09:42:46.892Z,34.90
2018-08-06T09:44:53.029Z,34.60
2018-08-06T09:46:59.551Z,34.60
2018-08-06T09:49:05.834Z,35.50
2018-08-06T09:51:09.895Z,34.80
2018-08-06T09:53:16.423Z,34.60
2018-08-06T09:55:28.427Z,35.40
2018-08-06T09:57:51.319Z,35.80
2018-08-06T10:00:00.278Z,35.70
2018-08-06T10:02:04.316Z,35.60
2018-08-06T10:04:08.902Z,35.40
2018-08-06T10:06:16.804Z,35.20
2018-08-06T10:08:21.250Z,35.20
2018-08-06T10:10:25.400Z,34.80
2018-08-06T10:12:33.515Z,34.70
2018-08-06T10:17:10.799Z,34.80
2018-08-06T10:19:16.953Z,34.60
2018-08-06T10:21:20.774Z,34.90
2018-08-06T10:23:24.845Z,34.80
2018-08-06T10:25:31.279Z,34.40
2018-08-06T10:27:36.958Z,33.80
2018-08-06T10:29:42.707Z,33.20
2018-08-06T10:31:48.238Z,32.80
2018-08-06T10:33:53.018Z,32.50
2018-08-06T10:36:01.715Z,32.80
2018-08-06T10:38:07.490Z,33.40
2018-08-06T10:40:16.886Z,33.20
2018-08-06T10:42:26.582Z,34.00
2018-08-06T10:44:36.441Z,33.40
2018-08-06T10:46:40.358Z,33.80
2018-08-06T10:48:46.491Z,33.90
2018-08-06T10:50:56.511Z,34.20
2018-08-06T10:53:02.550Z,34.00
2018-08-06T10:57:39.696Z,32.50
2018-08-06T10:59:43.598Z,31.50
2018-08-06T11:01:49.385Z,31.30
2018-08-06T11:03:53.278Z,30.30
2018-08-06T11:05:57.207Z,30.00
2018-08-06T11:08:05.593Z,29.80
2018-08-06T11:10:22.832Z,29.60
2018-08-06T11:12:28.157Z,29.60
2018-08-06T11:14:34.878Z,29.80
2018-08-06T11:16:45.562Z,30.00
2018-08-06T11:18:53.794Z,30.30
2018-08-06T11:21:16.888Z,30.90
2018-08-06T11:23:22.828Z,30.40
2018-08-06T11:25:27.946Z,30.10
2018-08-06T11:27:44.139Z,30.00
2018-08-06T11:29:54.946Z,29.50
2018-08-06T11:32:06.725Z,29.70
2018-08-06T11:34:13.472Z,29.60
2018-08-06T11:36:20.991Z,29.50
2018-08-06T11:41:10.543Z,29.50
2018-08-06T11:43:17.383Z,29.30
2018-08-06T11:45:23.652Z,29.30
2018-08-06T11:47:29.464Z,29.00
2018-08-06T11:49:36.596Z,29.20
2018-08-06T11:51:41.534Z,29.80
2018-08-06T11:53:47.101Z,29.30
2018-08-06T11:55:58.805Z,29.30
2018-08-06T11:58:03.450Z,29.40
2018-08-06T12:00:17.984Z,29.20
2018-08-06T12:02:24.090Z,28.90
2018-08-06T12:04:29.243Z,28.50
2018-08-06T12:06:33.218Z,28.10
2018-08-06T12:08:39.388Z,28.20
2018-08-06T12:10:43.940Z,28.10
2018-08-06T12:12:49.660Z,28.50
2018-08-06T12:14:56.379Z,28.60
2018-08-06T12:17:00.839Z,28.80
2018-08-06T12:19:08.472Z,28.70
2018-08-06T12:21:13.260Z,28.50
2018-08-06T12:23:19.949Z,28.30
2018-08-06T12:25:25.970Z,28.10
2018-08-06T12:27:34.606Z,28.10
2018-08-06T12:29:40.837Z,28.00
2018-08-06T12:31:49.741Z,28.10
2018-08-06T12:34:05.962Z,28.50
2018-08-06T12:36:12.634Z,29.10
2018-08-06T12:38:40.930Z,29.00
2018-08-06T12:40:54.799Z,28.80
2018-08-06T12:43:00.136Z,29.30
2018-08-06T12:45:07.141Z,28.60
2018-08-06T12:47:11.922Z,28.70
2018-08-06T12:49:17.933Z,28.80
2018-08-06T12:51:22.344Z,28.50
2018-08-06T12:53:31.593Z,28.30
2018-08-06T12:55:37.122Z,28.10
2018-08-06T12:57:43.189Z,28.30
2018-08-06T12:59:47.760Z,28.20
2018-08-06T13:04:03.778Z,28.10
2018-08-06T13:06:11.420Z,28.10
2018-08-06T13:08:43.470Z,27.80
2018-08-06T13:10:47.360Z,27.70
2018-08-06T13:12:52.618Z,27.70
2018-08-06T13:14:58.900Z,27.20
2018-08-06T13:17:05.830Z,26.50
2018-08-06T13:19:10.336Z,26.30
2018-08-06T13:21:19.594Z,26.20
2018-08-06T13:23:30.924Z,26.20
2018-08-06T13:25:37.641Z,26.00
2018-08-06T13:27:47.409Z,26.00
2018-08-06T13:29:56.155Z,25.70
2018-08-06T13:32:00.432Z,25.60
2018-08-06T13:34:06.378Z,25.90
2018-08-06T13:36:10.971Z,25.90
2018-08-06T13:38:15.141Z,25.80
2018-08-06T13:40:24.455Z,25.70
2018-08-06T13:42:29.688Z,25.50
2018-08-06T13:44:34.056Z,25.50
2018-08-06T13:46:38.519Z,25.30
2018-08-06T13:48:45.112Z,25.40
2018-08-06T13:50:50.305Z,25.30
2018-08-06T13:52:54.872Z,25.00
2018-08-06T13:54:59.512Z,24.80
2018-08-06T13:59:09.994Z,24.80
2018-08-06T14:01:14.070Z,24.80
2018-08-06T14:03:18.179Z,24.60
2018-08-06T14:05:23.293Z,24.30
2018-08-06T14:07:27.359Z,24.60
2018-08-06T14:09:31.274Z,24.40
2018-08-06T14:11:36.917Z,24.40
2018-08-06T14:13:42.696Z,24.60
2018-08-06T14:15:46.875Z,24.60
2018-08-06T14:19:57.078Z,25.30
2018-08-06T14:22:04.536Z,25.70
2018-08-06T14:24:10.141Z,26.10
2018-08-06T14:26:16.030Z,26.20
2018-08-06T14:32:31.795Z,25.10
2018-08-06T14:34:36.395Z,24.60
2018-08-06T14:36:42.245Z,24.60
2018-08-06T14:38:48.007Z,25.00
2018-08-06T14:40:54.038Z,25.20
2018-08-06T14:43:00.114Z,25.40
2018-08-06T14:45:07.093Z,25.20
2018-08-06T14:47:11.011Z,25.30
2018-08-06T14:49:16.487Z,25.40
2018-08-06T14:51:20.487Z,25.90
2018-08-06T14:53:25.733Z,26.40
2018-08-06T14:55:30.222Z,25.60
2018-08-06T14:59:41.311Z,25.80
2018-08-06T15:01:45.981Z,25.80
2018-08-06T15:03:56.652Z,26.30
2018-08-06T15:06:02.197Z,26.60
2018-08-06T15:08:06.513Z,26.70
2018-08-06T15:10:12.410Z,26.40
2018-08-06T15:12:22.222Z,26.20
2018-08-06T15:14:27.427Z,25.80
2018-08-06T15:16:32.271Z,25.30
2018-08-06T15:18:38.669Z,25.20
2018-08-06T15:20:43.960Z,25.20
2018-08-06T15:22:48.906Z,25.50
2018-08-06T15:26:59.309Z,24.80
2018-08-06T15:29:06.758Z,25.20
2018-08-06T15:31:12.141Z,24.80
2018-08-06T15:33:17.362Z,24.60
2018-08-06T15:35:22.335Z,24.50
2018-08-06T15:37:26.324Z,23.70
2018-08-06T15:39:33.775Z,23.00
2018-08-06T15:41:39.783Z,22.90
2018-08-06T15:43:45.319Z,22.70
2018-08-06T15:45:51.469Z,22.60
2018-08-06T15:48:08.385Z,21.60
2018-08-06T15:50:16.578Z,21.30
2018-08-06T15:52:28.376Z,21.70
2018-08-06T15:54:33.962Z,22.10
2018-08-06T15:56:40.789Z,22.40
2018-08-06T15:58:52.463Z,22.20
2018-08-06T16:00:58.927Z,21.80
2018-08-06T16:03:04.192Z,22.10
2018-08-06T16:05:11.241Z,22.90
2018-08-06T16:07:19.044Z,23.30
2018-08-06T16:09:26.361Z,23.60
2018-08-06T16:11:32.515Z,23.60
2018-08-06T16:13:44.665Z,23.70
2018-08-06T16:15:51.612Z,23.20
2018-08-06T16:18:04.171Z,22.90
2018-08-06T16:20:18.133Z,23.00
2018-08-06T16:22:26.080Z,22.70
2018-08-06T16:24:30.354Z,22.40
2018-08-06T16:26:34.348Z,22.50
2018-08-06T16:28:38.402Z,22.20
2018-08-06T16:30:45.078Z,22.10
2018-08-06T16:32:50.056Z,22.00
2018-08-06T16:34:54.034Z,22.50
2018-08-06T16:39:27.197Z,23.30
2018-08-06T16:41:31.318Z,23.10
2018-08-06T16:43:41.254Z,23.40
2018-08-06T16:45:48.083Z,23.20
2018-08-06T16:47:55.726Z,23.20
2018-08-06T16:50:03.503Z,23.00
2018-08-06T16:52:09.972Z,22.90
2018-08-06T16:54:17.717Z,22.70
2018-08-06T16:56:23.689Z,22.30
2018-08-06T16:58:28.515Z,21.90
2018-08-06T17:00:33.772Z,22.20
2018-08-06T17:02:38.166Z,22.40
2018-08-06T17:04:45.212Z,22.10
2018-08-06T17:06:50.541Z,22.10
2018-08-06T17:11:11.202Z,22.10
2018-08-06T17:13:19.520Z,22.20
2018-08-06T17:15:24.040Z,22.20
2018-08-06T17:17:28.901Z,22.20
2018-08-06T17:19:34.242Z,22.20
2018-08-06T17:21:40.003Z,22.40
2018-08-06T17:23:44.974Z,22.40
2018-08-06T17:25:48.969Z,22.50
2018-08-06T17:27:54.139Z,22.90
2018-08-06T17:30:00.725Z,23.20
2018-08-06T17:32:04.717Z,23.20
2018-08-06T17:34:08.960Z,23.60
2018-08-06T17:36:12.937Z,24.00
2018-08-06T17:38:17.829Z,24.10
2018-08-06T17:40:22.838Z,23.90
2018-08-06T17:42:29.669Z,23.70
2018-08-06T17:44:33.784Z,23.70
2018-08-06T17:46:42.437Z,23.80
2018-08-06T17:48:55.757Z,23.90
2018-08-06T17:51:02.194Z,23.90
2018-08-06T17:53:09.977Z,24.20
2018-08-06T17:55:15.760Z,24.70
2018-08-06T17:57:21.192Z,25.40
2018-08-06T17:59:26.830Z,26.00
2018-08-06T18:01:32.376Z,26.70
2018-08-06T18:03:36.300Z,27.00
2018-08-06T18:05:40.669Z,27.30
2018-08-06T18:07:45.831Z,27.60
2018-08-06T18:09:57.761Z,27.70
2018-08-06T18:12:07.306Z,28.50
2018-08-06T18:14:13.990Z,28.20
2018-08-06T18:16:22.757Z,28.30
2018-08-06T18:18:28.944Z,28.40
2018-08-06T18:20:34.573Z,28.70
2018-08-06T18:22:39.567Z,29.10
2018-08-06T18:24:45.843Z,29.50
2018-08-06T18:26:50.330Z,30.20
2018-08-06T18:28:56.228Z,30.80
2018-08-06T18:31:02.303Z,31.60
2018-08-06T18:33:08.936Z,32.10
2018-08-06T18:35:14.525Z,32.80
2018-08-06T18:37:22.176Z,33.50
2018-08-06T18:39:26.661Z,33.70
2018-08-06T18:41:30.698Z,34.00
2018-08-06T18:43:35.343Z,34.00
2018-08-06T18:45:39.670Z,34.40
2018-08-06T18:47:51.902Z,34.70
2018-08-06T18:49:56.385Z,34.50
2018-08-06T18:52:02.087Z,34.70
2018-08-06T18:54:10.015Z,34.70
2018-08-06T18:56:15.070Z,35.10
2018-08-06T18:58:20.352Z,35.30
2018-08-06T19:00:25.119Z,35.60
2018-08-06T19:02:29.760Z,35.90
2018-08-06T19:04:34.455Z,36.40
2018-08-06T19:06:43.676Z,36.90
2018-08-06T19:09:03.255Z,38.20
2018-08-06T19:11:15.709Z,38.70
2018-08-06T19:13:25.358Z,39.00
2018-08-06T19:15:32.469Z,39.70
2018-08-06T19:17:44.572Z,40.20
2018-08-06T19:19:48.605Z,41.30
2018-08-06T19:21:54.732Z,42.30
2018-08-06T19:24:04.019Z,42.80
2018-08-06T19:26:07.975Z,43.40
2018-08-06T19:28:11.968Z,43.50
2018-08-06T19:30:16.029Z,43.80
2018-08-06T19:32:20.134Z,44.20
2018-08-06T19:34:27.245Z,44.80
2018-08-06T19:38:56.770Z,45.60
2018-08-06T19:41:04.969Z,45.90
2018-08-06T19:43:15.012Z,45.80
2018-08-06T19:45:18.942Z,45.90
2018-08-06T19:47:23.244Z,46.00
2018-08-06T19:49:32.234Z,46.40
2018-08-06T19:51:37.479Z,46.40
2018-08-06T19:53:46.351Z,46.50
2018-08-06T19:55:57.238Z,47.00
2018-08-06T19:58:03.425Z,47.10
2018-08-06T20:00:10.702Z,47.30
2018-08-06T20:02:14.720Z,47.30
2018-08-06T20:04:18.582Z,47.50
2018-08-06T20:08:26.731Z,47.60
2018-08-06T20:10:30.969Z,48.10
2018-08-06T20:12:35.981Z,48.10
2018-08-06T20:14:41.842Z,48.00
2018-08-06T20:16:45.906Z,48.00
2018-08-06T20:18:50.704Z,48.00
2018-08-06T20:20:54.791Z,48.10
2018-08-06T20:22:59.612Z,48.10
2018-08-06T20:25:06.016Z,47.90
2018-08-06T20:27:13.033Z,47.60
2018-08-06T20:29:17.970Z,47.50
2018-08-06T20:31:22.340Z,47.50
2018-08-06T20:33:27.455Z,47.40
2018-08-06T20:35:31.516Z,47.50
2018-08-06T20:37:39.184Z,47.20
2018-08-06T20:39:43.310Z,47.40
2018-08-06T20:41:47.583Z,47.30
2018-08-06T20:43:52.233Z,47.30
2018-08-06T20:45:57.473Z,47.30
2018-08-06T20:48:01.750Z,47.50
2018-08-06T20:50:06.600Z,47.80
2018-08-06T20:52:12.730Z,47.70
2018-08-06T20:54:16.744Z,47.40
2018-08-06T20:56:21.951Z,47.30
2018-08-06T20:58:25.943Z,47.00
2018-08-06T21:04:45.036Z,47.40
2018-08-06T21:06:50.257Z,47.20
2018-08-06T21:08:54.814Z,47.10
2018-08-06T21:11:02.649Z,46.90
2018-08-06T21:13:07.589Z,46.80
2018-08-06T21:15:14.640Z,46.60
2018-08-06T21:17:19.444Z,46.40
2018-08-06T21:19:26.455Z,46.10
2018-08-06T21:21:32.735Z,46.00
2018-08-06T21:23:36.809Z,45.80
2018-08-06T21:25:42.526Z,45.50
2018-08-06T21:27:49.790Z,45.50
2018-08-06T21:29:54.875Z,45.50
2018-08-06T21:32:00.310Z,45.40
2018-08-06T21:34:05.386Z,45.30
2018-08-06T21:36:09.396Z,45.40
2018-08-06T21:38:14.884Z,45.40
2018-08-06T21:40:21.320Z,45.50
2018-08-06T21:44:30.373Z,45.50
2018-08-06T21:46:38.640Z,45.50
2018-08-06T21:48:42.632Z,45.30
2018-08-06T21:50:46.660Z,45.40
2018-08-06T21:52:51.658Z,45.50
2018-08-06T21:54:55.830Z,45.40
2018-08-06T21:56:59.743Z,45.60
2018-08-06T21:59:04.310Z,45.60
2018-08-06T22:01:09.604Z,45.70
2018-08-06T22:03:21.177Z,45.70
2018-08-06T22:05:28.711Z,45.70
2018-08-06T22:07:33.574Z,45.60
2018-08-06T22:09:38.570Z,45.90
2018-08-06T22:11:46.597Z,46.10
2018-08-06T22:13:51.523Z,46.20
2018-08-06T22:15:57.081Z,46.10
2018-08-06T22:18:01.501Z,46.30
2018-08-06T22:20:05.971Z,46.30
2018-08-06T22:22:12.831Z,46.40
2018-08-06T22:24:24.233Z,46.30
2018-08-06T22:26:31.457Z,46.30
2018-08-06T22:28:37.854Z,46.40
2018-08-06T22:30:43.539Z,46.60
2018-08-06T22:32:51.655Z,46.80
2018-08-06T22:34:59.442Z,46.90
2018-08-06T22:37:09.053Z,46.90
2018-08-06T22:39:13.037Z,47.10
2018-08-06T22:41:17.496Z,47.20
2018-08-06T22:43:25.991Z,47.10
2018-08-06T22:45:34.025Z,47.20
2018-08-06T22:47:42.381Z,47.70
2018-08-06T22:49:46.799Z,48.20
2018-08-06T22:51:50.797Z,48.90
2018-08-06T22:53:55.118Z,48.60
2018-08-06T22:56:05.740Z,48.80
2018-08-06T22:58:10.374Z,48.60
2018-08-06T23:00:17.465Z,48.60
2018-08-06T23:02:21.736Z,48.50
2018-08-06T23:04:25.766Z,48.40
2018-08-06T23:06:30.091Z,48.50
2018-08-06T23:08:34.244Z,48.40
2018-08-06T23:10:41.406Z,49.10
2018-08-06T23:12:45.400Z,48.90
2018-08-06T23:14:49.368Z,48.90
2018-08-06T23:16:54.357Z,48.90
2018-08-06T23:18:58.258Z,48.90
2018-08-06T23:21:03.520Z,49.20
2018-08-06T23:23:09.593Z,49.40
2018-08-06T23:25:16.883Z,49.30
2018-08-06T23:27:22.145Z,49.30
2018-08-06T23:29:26.076Z,49.20
2018-08-06T23:31:30.431Z,49.00
2018-08-06T23:33:34.247Z,48.80
2018-08-06T23:35:38.194Z,49.00
2018-08-06T23:37:45.281Z,49.10
2018-08-06T23:39:49.428Z,49.10
2018-08-06T23:41:54.033Z,49.20
2018-08-06T23:43:59.026Z,49.20
2018-08-06T23:46:04.767Z,49.40
2018-08-06T23:48:09.186Z,49.30
2018-08-06T23:50:20.629Z,49.30
2018-08-06T23:52:27.441Z,49.50
2018-08-06T23:54:33.651Z,49.50
2018-08-06T23:56:38.247Z,49.30
2018-08-06T23:58:42.244Z,49.30
